createdAt,value
2023-01-23T00:01:11.260Z,19.60
2023-01-23T00:03:38.056Z,19.60
2023-01-23T00:06:08.713Z,19.60
2023-01-23T00:08:36.365Z,19.60
2023-01-23T00:11:07.847Z,19.60
2023-01-23T00:13:35.649Z,19.60
2023-01-23T00:16:11.529Z,19.60
2023-01-23T00:18:38.441Z,19.60
2023-01-23T00:21:07.165Z,19.50
2023-01-23T00:23:34.425Z,19.50
2023-01-23T00:26:05.883Z,19.50
2023-01-23T00:28:32.711Z,19.50
2023-01-23T00:31:07.569Z,19.40
2023-01-23T00:33:34.491Z,19.40
2023-01-23T00:36:02.003Z,19.40
2023-01-23T00:38:29.310Z,19.40
2023-01-23T00:40:56.472Z,19.40
2023-01-23T00:43:24.301Z,19.40
2023-01-23T00:45:51.494Z,19.40
2023-01-23T00:48:18.283Z,19.30
2023-01-23T00:50:45.330Z,19.30
2023-01-23T00:53:13.078Z,19.40
2023-01-23T00:55:40.751Z,19.40
2023-01-23T00:58:08.484Z,19.30
2023-01-23T01:00:36.540Z,19.40
2023-01-23T01:03:03.645Z,19.40
2023-01-23T01:05:30.427Z,19.40
2023-01-23T01:07:57.356Z,19.40
2023-01-23T01:10:29.201Z,19.40
2023-01-23T01:13:00.500Z,19.40
2023-01-23T01:15:27.815Z,19.40
2023-01-23T01:17:54.738Z,19.40
2023-01-23T01:20:23.801Z,19.40
2023-01-23T01:22:51.031Z,19.30
2023-01-23T01:25:18.186Z,19.30
2023-01-23T01:27:45.279Z,19.20
2023-01-23T01:30:12.816Z,19.20
2023-01-23T01:32:42.715Z,19.20
2023-01-23T01:35:10.665Z,19.10
2023-01-23T01:37:39.710Z,19.00
2023-01-23T01:40:08.909Z,19.00
2023-01-23T01:42:49.553Z,19.00
2023-01-23T01:45:54.165Z,18.90
2023-01-23T01:48:24.531Z,18.90
2023-01-23T01:50:52.510Z,18.90
2023-01-23T01:53:21.768Z,18.90
2023-01-23T01:55:49.098Z,18.90
2023-01-23T01:58:18.305Z,18.90
2023-01-23T02:00:45.214Z,18.90
2023-01-23T02:03:12.140Z,18.80
2023-01-23T02:05:44.835Z,18.80
2023-01-23T02:08:30.205Z,18.80
2023-01-23T02:10:57.089Z,18.80
2023-01-23T02:13:28.358Z,18.90
2023-01-23T02:15:55.450Z,18.90
2023-01-23T02:18:22.711Z,19.00
2023-01-23T02:20:52.503Z,19.00
2023-01-23T02:23:37.166Z,19.10
2023-01-23T02:26:27.415Z,19.10
2023-01-23T02:28:55.350Z,19.20
2023-01-23T02:31:23.166Z,19.30
2023-01-23T02:33:51.363Z,19.40
2023-01-23T02:36:22.142Z,19.40
2023-01-23T02:39:08.371Z,19.40
2023-01-23T02:41:44.329Z,19.50
2023-01-23T02:44:31.912Z,19.50
2023-01-23T02:47:03.963Z,19.50
2023-01-23T02:49:31.426Z,19.50
2023-01-23T02:51:58.521Z,19.50
2023-01-23T02:54:25.791Z,19.50
2023-01-23T02:56:52.654Z,19.50
2023-01-23T02:59:38.144Z,19.50
2023-01-23T03:02:06.207Z,19.50
2023-01-23T03:04:33.102Z,19.60
2023-01-23T03:06:59.941Z,19.60
2023-01-23T03:09:27.058Z,19.60
2023-01-23T03:11:54.058Z,19.70
2023-01-23T03:14:23.076Z,19.70
2023-01-23T03:16:53.626Z,19.70
2023-01-23T03:19:23.237Z,19.60
2023-01-23T03:21:51.060Z,19.60
2023-01-23T03:24:18.330Z,19.60
2023-01-23T03:26:47.008Z,19.50
2023-01-23T03:29:35.370Z,19.50
2023-01-23T03:32:02.234Z,19.40
2023-01-23T03:34:29.696Z,19.40
2023-01-23T03:36:56.497Z,19.40
2023-01-23T03:39:42.108Z,19.40
2023-01-23T03:42:09.192Z,19.40
2023-01-23T03:44:36.179Z,19.40
2023-01-23T03:47:03.073Z,19.50
2023-01-23T03:49:30.042Z,19.50
2023-01-23T03:51:56.908Z,19.50
2023-01-23T03:54:23.728Z,19.60
2023-01-23T03:56:50.553Z,19.60
2023-01-23T03:59:17.294Z,19.60
2023-01-23T04:01:44.531Z,19.70
2023-01-23T04:04:11.338Z,19.60
2023-01-23T04:06:38.117Z,19.60
2023-01-23T04:09:05.115Z,19.60
2023-01-23T04:11:32.085Z,19.60
2023-01-23T04:13:58.869Z,19.60
2023-01-23T04:16:27.569Z,19.60
2023-01-23T04:18:54.566Z,19.50
2023-01-23T04:21:21.661Z,19.50
2023-01-23T04:23:48.500Z,19.40
2023-01-23T04:26:15.278Z,19.40
2023-01-23T04:28:42.127Z,19.30
2023-01-23T04:31:09.775Z,19.30
2023-01-23T04:33:36.687Z,19.30
2023-01-23T04:36:05.525Z,19.30
2023-01-23T04:38:33.540Z,19.20
2023-01-23T04:41:00.746Z,19.20
2023-01-23T04:43:27.502Z,19.30
2023-01-23T04:45:55.566Z,19.30
2023-01-23T04:48:24.948Z,19.30
2023-01-23T04:50:52.495Z,19.30
2023-01-23T04:53:19.852Z,19.30
2023-01-23T04:55:49.045Z,19.30
2023-01-23T04:58:16.881Z,19.20
2023-01-23T05:00:43.620Z,19.20
2023-01-23T05:03:10.467Z,19.10
2023-01-23T05:05:37.405Z,19.10
2023-01-23T05:08:05.776Z,19.10
2023-01-23T05:10:32.625Z,19.10
2023-01-23T05:12:59.393Z,19.10
2023-01-23T05:15:26.318Z,19.10
2023-01-23T05:17:53.094Z,19.10
2023-01-23T05:20:20.685Z,19.20
2023-01-23T05:22:53.397Z,19.20
2023-01-23T05:25:25.374Z,19.20
2023-01-23T05:27:52.684Z,19.20
2023-01-23T05:30:22.514Z,19.30
2023-01-23T05:32:49.512Z,19.30
2023-01-23T05:35:16.642Z,19.20
2023-01-23T05:37:43.445Z,19.20
2023-01-23T05:40:13.265Z,19.20
2023-01-23T05:42:40.170Z,19.20
2023-01-23T05:45:07.564Z,19.20
2023-01-23T05:47:34.423Z,19.10
2023-01-23T05:50:01.217Z,19.10
2023-01-23T05:52:28.269Z,19.10
2023-01-23T05:54:55.143Z,19.10
2023-01-23T05:57:22.230Z,19.10
2023-01-23T05:59:49.045Z,19.10
2023-01-23T06:02:16.230Z,19.10
2023-01-23T06:04:43.020Z,19.20
2023-01-23T06:07:14.186Z,19.20
2023-01-23T06:09:41.144Z,19.30
2023-01-23T06:12:08.975Z,19.30
2023-01-23T06:14:36.118Z,19.30
2023-01-23T06:17:03.399Z,19.30
2023-01-23T06:19:30.215Z,19.40
2023-01-23T06:21:57.970Z,19.30
2023-01-23T06:24:24.869Z,19.30
2023-01-23T06:26:51.681Z,19.30
2023-01-23T06:29:18.500Z,19.40
2023-01-23T06:31:46.885Z,19.30
2023-01-23T06:34:14.847Z,19.30
2023-01-23T06:36:42.211Z,19.40
2023-01-23T06:39:12.180Z,19.40
2023-01-23T06:41:39.157Z,19.40
2023-01-23T06:44:06.468Z,19.40
2023-01-23T06:46:33.517Z,19.40
2023-01-23T06:49:00.273Z,19.50
2023-01-23T06:51:27.129Z,19.50
2023-01-23T06:53:54.658Z,19.60
2023-01-23T06:56:21.577Z,19.60
2023-01-23T06:58:48.793Z,19.60
2023-01-23T07:01:17.725Z,19.70
2023-01-23T07:03:45.177Z,19.70
2023-01-23T07:06:14.185Z,19.70
2023-01-23T07:08:42.180Z,19.60
2023-01-23T07:11:09.649Z,19.60
2023-01-23T07:13:36.540Z,19.60
2023-01-23T07:16:03.623Z,19.60
2023-01-23T07:18:30.670Z,19.60
2023-01-23T07:20:58.146Z,19.60
2023-01-23T07:23:24.976Z,19.60
2023-01-23T07:25:52.171Z,19.60
2023-01-23T07:28:18.948Z,19.70
2023-01-23T07:30:47.044Z,19.70
2023-01-23T07:33:13.834Z,19.70
2023-01-23T07:35:41.124Z,19.80
2023-01-23T07:38:07.912Z,19.80
2023-01-23T07:40:34.706Z,19.80
2023-01-23T07:43:01.478Z,19.80
2023-01-23T07:45:28.478Z,19.80
2023-01-23T07:47:55.345Z,19.80
2023-01-23T07:50:22.521Z,19.80
2023-01-23T07:52:49.500Z,19.70
2023-01-23T07:55:16.922Z,19.70
2023-01-23T07:57:43.857Z,19.70
2023-01-23T08:00:11.086Z,19.70
2023-01-23T08:02:38.388Z,19.70
2023-01-23T08:05:06.108Z,19.70
2023-01-23T08:07:32.904Z,19.70
2023-01-23T08:09:59.674Z,19.70
2023-01-23T08:12:26.516Z,19.80
2023-01-23T08:14:53.362Z,19.80
2023-01-23T08:17:21.077Z,19.80
2023-01-23T08:19:49.153Z,19.80
2023-01-23T08:22:15.981Z,19.80
2023-01-23T08:24:43.682Z,19.80
2023-01-23T08:27:12.294Z,19.80
2023-01-23T08:29:39.060Z,19.70
2023-01-23T08:32:06.064Z,19.70
2023-01-23T08:34:32.932Z,19.60
2023-01-23T08:36:59.713Z,19.60
2023-01-23T08:39:26.527Z,19.60
2023-01-23T08:41:55.240Z,19.50
2023-01-23T08:44:23.561Z,19.50
2023-01-23T08:46:50.572Z,19.50
2023-01-23T08:49:20.217Z,19.50
2023-01-23T08:51:47.194Z,19.60
2023-01-23T08:54:13.964Z,19.60
2023-01-23T08:56:41.266Z,19.60
2023-01-23T08:59:08.993Z,19.60
2023-01-23T09:01:36.104Z,19.70
2023-01-23T09:04:03.175Z,19.70
2023-01-23T09:06:29.978Z,19.80
2023-01-23T09:08:56.988Z,19.80
2023-01-23T09:11:23.995Z,19.80
2023-01-23T09:13:53.737Z,19.80
2023-01-23T09:16:20.930Z,19.80
2023-01-23T09:18:48.147Z,19.80
2023-01-23T09:21:16.880Z,19.70
2023-01-23T09:23:43.768Z,19.70
2023-01-23T09:26:12.869Z,19.60
2023-01-23T09:28:42.625Z,19.60
2023-01-23T09:31:14.026Z,19.60
2023-01-23T09:33:41.582Z,19.60
2023-01-23T09:36:09.354Z,19.50
2023-01-23T09:38:36.838Z,19.50
2023-01-23T09:41:20.209Z,19.50
2023-01-23T09:43:57.850Z,19.50
2023-01-23T09:46:41.707Z,19.50
2023-01-23T09:49:25.167Z,19.60
2023-01-23T09:52:02.814Z,19.50
2023-01-23T09:54:50.384Z,19.60
2023-01-23T09:57:24.776Z,19.60
2023-01-23T10:00:00.337Z,19.60
2023-01-23T10:02:29.345Z,19.60
2023-01-23T10:04:58.270Z,19.60
2023-01-23T10:07:44.505Z,19.60
2023-01-23T10:10:20.204Z,19.60
2023-01-23T10:13:02.966Z,19.60
2023-01-23T10:15:57.436Z,19.60
2023-01-23T10:18:36.202Z,19.60
2023-01-23T10:21:06.106Z,19.60
2023-01-23T10:23:35.922Z,19.70
2023-01-23T10:26:04.303Z,19.70
2023-01-23T10:28:39.348Z,19.70
2023-01-23T10:31:25.027Z,19.70
2023-01-23T10:34:22.062Z,19.70
2023-01-23T10:37:17.929Z,19.80
2023-01-23T10:39:48.786Z,19.80
2023-01-23T10:42:19.483Z,19.70
2023-01-23T10:44:46.251Z,19.80
2023-01-23T10:47:38.828Z,19.80
2023-01-23T10:50:07.623Z,19.80
2023-01-23T10:52:37.557Z,19.80
2023-01-23T10:55:24.464Z,19.80
2023-01-23T10:57:55.728Z,19.80
2023-01-23T11:00:33.935Z,19.90
2023-01-23T11:03:22.684Z,19.90
2023-01-23T11:05:53.543Z,20.00
2023-01-23T11:08:32.409Z,20.00
2023-01-23T11:11:32.812Z,20.00
2023-01-23T11:14:16.688Z,20.10
2023-01-23T11:16:44.147Z,20.10
2023-01-23T11:19:18.359Z,20.20
2023-01-23T11:21:58.164Z,20.20
2023-01-23T11:24:38.584Z,20.20
2023-01-23T11:27:17.781Z,20.30
2023-01-23T11:30:16.800Z,20.40
2023-01-23T11:32:58.549Z,20.40
2023-01-23T11:35:48.902Z,20.50
2023-01-23T11:38:27.271Z,20.50
2023-01-23T11:40:54.692Z,20.60
2023-01-23T11:43:21.551Z,20.60
2023-01-23T11:46:07.169Z,20.70
2023-01-23T11:48:36.680Z,20.70
2023-01-23T11:51:30.164Z,20.70
2023-01-23T11:54:08.368Z,20.70
2023-01-23T11:56:53.507Z,20.80
2023-01-23T11:59:49.263Z,20.80
2023-01-23T12:02:15.962Z,20.80
2023-01-23T12:05:06.379Z,20.70
2023-01-23T12:07:47.012Z,20.70
2023-01-23T12:10:28.439Z,20.60
2023-01-23T12:13:19.909Z,20.60
2023-01-23T12:16:04.939Z,20.50
2023-01-23T12:18:53.354Z,20.50
2023-01-23T12:21:30.754Z,20.40
2023-01-23T12:24:22.787Z,20.30
2023-01-23T12:27:16.896Z,20.30
2023-01-23T12:29:46.686Z,20.20
2023-01-23T12:32:40.150Z,20.20
2023-01-23T12:35:25.701Z,20.20
2023-01-23T12:38:22.545Z,20.20
2023-01-23T12:41:13.338Z,20.20
2023-01-23T12:43:57.205Z,20.20
2023-01-23T12:46:36.678Z,20.20
2023-01-23T12:49:10.175Z,20.20
2023-01-23T12:51:40.784Z,20.20
2023-01-23T12:54:16.284Z,20.30
2023-01-23T12:56:46.168Z,20.30
2023-01-23T12:59:32.105Z,20.30
2023-01-23T13:02:09.319Z,20.30
2023-01-23T13:04:42.216Z,20.30
2023-01-23T13:07:22.864Z,20.30
2023-01-23T13:10:14.389Z,20.30
2023-01-23T13:12:41.366Z,20.20
2023-01-23T13:15:19.135Z,20.20
2023-01-23T13:17:58.012Z,20.20
2023-01-23T13:21:12.422Z,20.20
2023-01-23T13:23:39.699Z,20.10
2023-01-23T13:26:12.493Z,20.10
2023-01-23T13:28:47.887Z,20.10
2023-01-23T13:31:36.662Z,20.10
2023-01-23T13:34:25.743Z,20.10
2023-01-23T13:36:53.752Z,20.10
2023-01-23T13:39:23.637Z,20.20
2023-01-23T13:41:53.086Z,20.20
2023-01-23T13:44:40.361Z,20.20
2023-01-23T14:22:07.950Z,20.00
2023-01-23T14:24:47.033Z,20.10
2023-01-23T14:27:29.412Z,20.10
2023-01-23T14:30:12.192Z,20.10
2023-01-23T14:32:39.066Z,20.10
2023-01-23T14:35:29.373Z,20.10
2023-01-23T14:37:59.855Z,20.10
2023-01-23T14:40:29.805Z,20.10
2023-01-23T14:43:12.391Z,20.10
2023-01-23T14:45:39.876Z,20.10
2023-01-23T14:48:14.074Z,20.10
2023-01-23T14:50:41.203Z,20.00
2023-01-23T14:53:14.859Z,19.90
2023-01-23T14:55:46.175Z,19.90
2023-01-23T14:58:22.921Z,19.80
2023-01-23T15:00:51.898Z,19.90
2023-01-23T15:03:35.385Z,19.90
2023-01-23T15:06:05.869Z,19.90
2023-01-23T15:08:34.795Z,20.00
2023-01-23T15:11:03.088Z,20.00
2023-01-23T15:13:37.093Z,20.10
2023-01-23T15:16:06.967Z,20.10
2023-01-23T15:18:35.653Z,20.20
2023-01-23T15:21:03.026Z,20.20
2023-01-23T15:23:37.849Z,20.20
2023-01-23T15:26:19.605Z,20.30
2023-01-23T15:28:54.924Z,20.30
2023-01-23T15:31:42.713Z,20.30
2023-01-23T15:34:16.351Z,20.30
2023-01-23T15:37:10.001Z,20.30
2023-01-23T15:39:49.733Z,20.30
2023-01-23T15:42:17.405Z,20.40
2023-01-23T15:44:45.112Z,20.40
2023-01-23T15:47:12.843Z,20.40
2023-01-23T15:49:40.712Z,20.50
2023-01-23T15:52:27.400Z,20.50
2023-01-23T15:55:02.837Z,20.50
2023-01-23T15:57:31.094Z,20.60
2023-01-23T16:00:01.256Z,20.50
2023-01-23T16:02:33.125Z,20.50
2023-01-23T16:05:03.446Z,20.50
2023-01-23T16:07:37.401Z,20.40
2023-01-23T16:10:17.801Z,20.40
2023-01-23T16:12:48.843Z,20.30
2023-01-23T16:15:18.918Z,20.20
2023-01-23T16:17:47.043Z,20.10
2023-01-23T16:20:18.471Z,20.10
2023-01-23T16:22:49.009Z,20.00
2023-01-23T16:25:43.102Z,20.00
2023-01-23T16:28:14.059Z,20.00
2023-01-23T16:30:42.500Z,20.00
2023-01-23T16:33:11.489Z,20.00
2023-01-23T16:35:38.593Z,20.10
2023-01-23T16:38:06.849Z,20.10
2023-01-23T16:40:34.519Z,20.20
2023-01-23T16:43:03.001Z,20.20
2023-01-23T16:45:32.112Z,20.20
2023-01-23T16:48:00.580Z,20.30
2023-01-23T16:50:37.180Z,20.30
2023-01-23T16:53:28.748Z,20.40
2023-01-23T16:55:59.168Z,20.40
2023-01-23T16:58:34.609Z,20.30
2023-01-23T17:01:04.439Z,20.30
2023-01-23T17:03:35.181Z,20.20
2023-01-23T17:06:02.754Z,20.20
2023-01-23T17:08:29.953Z,20.20
2023-01-23T17:11:02.701Z,20.20
2023-01-23T17:13:33.502Z,20.10
2023-01-23T17:16:02.571Z,20.10
2023-01-23T17:18:33.530Z,20.10
2023-01-23T17:21:00.770Z,20.10
2023-01-23T17:23:27.538Z,20.20
2023-01-23T17:26:00.806Z,20.20
2023-01-23T17:28:29.027Z,20.20
2023-01-23T17:31:00.335Z,20.20
2023-01-23T17:33:31.645Z,20.20
2023-01-23T17:36:00.787Z,20.20
2023-01-23T17:38:34.366Z,20.20
2023-01-23T17:41:02.090Z,20.20
2023-01-23T17:43:29.688Z,20.20
2023-01-23T17:45:56.750Z,20.20
2023-01-23T17:48:27.581Z,20.10
2023-01-23T17:50:54.787Z,20.10
2023-01-23T17:53:23.745Z,20.00
2023-01-23T17:55:52.618Z,20.00
2023-01-23T17:58:20.613Z,19.90
2023-01-23T18:00:51.011Z,19.90
2023-01-23T18:03:22.088Z,19.90
2023-01-23T18:05:49.066Z,19.80
2023-01-23T18:08:18.150Z,19.90
2023-01-23T18:10:47.630Z,19.80
2023-01-23T18:13:26.688Z,19.80
2023-01-23T18:15:56.689Z,19.80
2023-01-23T18:18:31.955Z,19.80
2023-01-23T18:21:02.402Z,19.80
2023-01-23T18:23:32.004Z,19.80
2023-01-23T18:26:14.513Z,19.80
2023-01-23T18:28:56.996Z,19.70
2023-01-23T18:31:40.474Z,19.70
2023-01-23T18:34:35.973Z,19.60
2023-01-23T18:37:15.782Z,19.60
2023-01-23T18:40:01.670Z,19.50
2023-01-23T18:42:35.489Z,19.40
2023-01-23T18:45:11.275Z,19.40
2023-01-23T18:47:38.336Z,19.40
2023-01-23T18:50:06.724Z,19.40
2023-01-23T18:52:53.970Z,19.30
2023-01-23T18:55:32.801Z,19.40
2023-01-23T18:58:17.334Z,19.40
2023-01-23T19:00:52.421Z,19.50
2023-01-23T19:03:22.147Z,19.50
2023-01-23T19:05:49.124Z,19.50
2023-01-23T19:08:32.536Z,19.60
2023-01-23T19:11:07.039Z,19.60
2023-01-23T19:13:44.167Z,19.60
2023-01-23T19:16:41.745Z,19.70
2023-01-23T19:19:37.637Z,19.80
2023-01-23T19:22:11.786Z,19.80
2023-01-23T19:24:38.904Z,19.80
2023-01-23T19:27:20.599Z,19.80
2023-01-23T19:29:47.574Z,19.70
2023-01-23T19:32:14.917Z,19.70
2023-01-23T19:34:43.001Z,19.70
2023-01-23T19:37:10.065Z,19.60
2023-01-23T19:39:36.944Z,19.60
2023-01-23T19:42:04.223Z,19.70
2023-01-23T19:44:31.093Z,19.70
2023-01-23T19:46:58.084Z,19.70
2023-01-23T19:49:25.510Z,19.70
2023-01-23T19:51:52.753Z,19.70
2023-01-23T19:54:21.224Z,19.70
2023-01-23T19:56:49.979Z,19.70
2023-01-23T19:59:16.854Z,19.70
2023-01-23T20:01:48.423Z,19.60
2023-01-23T20:04:23.480Z,19.70
2023-01-23T20:06:51.830Z,19.60
2023-01-23T20:09:19.191Z,19.60
2023-01-23T20:11:47.090Z,19.60
2023-01-23T20:14:14.647Z,19.50
2023-01-23T20:16:43.012Z,19.50
2023-01-23T20:19:14.978Z,19.60
2023-01-23T20:21:42.383Z,19.50
2023-01-23T20:24:09.496Z,19.60
2023-01-23T20:26:36.881Z,19.60
2023-01-23T20:29:04.640Z,19.60
2023-01-23T20:31:32.243Z,19.50
2023-01-23T20:33:59.782Z,19.50
2023-01-23T20:36:26.831Z,19.50
2023-01-23T20:38:53.813Z,19.40
2023-01-23T20:41:21.388Z,19.40
2023-01-23T20:43:48.890Z,19.40
2023-01-23T20:46:17.020Z,19.40
2023-01-23T20:48:45.100Z,19.30
2023-01-23T20:51:13.782Z,19.40
2023-01-23T20:53:41.621Z,19.40
2023-01-23T20:56:14.227Z,19.30
2023-01-23T20:59:02.319Z,19.30
2023-01-23T21:01:52.651Z,19.30
2023-01-23T21:04:20.077Z,19.30
2023-01-23T21:06:46.877Z,19.30
2023-01-23T21:09:13.965Z,19.30
2023-01-23T21:11:40.795Z,19.30
2023-01-23T21:14:08.675Z,19.20
2023-01-23T21:16:35.673Z,19.20
2023-01-23T21:19:02.750Z,19.20
2023-01-23T21:21:29.915Z,19.20
2023-01-23T21:23:57.104Z,19.20
2023-01-23T21:26:26.738Z,19.20
2023-01-23T21:28:55.019Z,19.20
2023-01-23T21:31:25.619Z,19.20
2023-01-23T21:33:52.575Z,19.20
2023-01-23T21:36:22.970Z,19.20
2023-01-23T21:38:51.467Z,19.10
2023-01-23T21:41:19.064Z,19.10
2023-01-23T21:43:45.889Z,19.10
2023-01-23T21:46:12.761Z,19.10
2023-01-23T21:48:39.565Z,19.00
2023-01-23T21:51:18.547Z,19.00
2023-01-23T21:53:47.780Z,19.00
2023-01-23T21:56:16.897Z,19.00
2023-01-23T21:58:44.486Z,18.90
2023-01-23T22:01:34.835Z,18.90
2023-01-23T22:04:16.497Z,18.90
2023-01-23T22:06:44.376Z,18.90
2023-01-23T22:09:16.209Z,18.90
2023-01-23T22:11:43.610Z,19.00
2023-01-23T22:14:10.693Z,19.00
2023-01-23T22:16:48.487Z,19.00
2023-01-23T22:19:19.157Z,19.00
2023-01-23T22:21:46.667Z,19.00
2023-01-23T22:24:14.836Z,19.00
2023-01-23T22:26:42.164Z,19.00
2023-01-23T22:29:09.226Z,19.00
2023-01-23T22:31:36.228Z,19.00
2023-01-23T22:34:03.114Z,19.10
2023-01-23T22:36:30.046Z,19.10
2023-01-23T22:38:57.163Z,19.10
2023-01-23T22:41:24.128Z,19.10
2023-01-23T22:43:54.696Z,19.10
2023-01-23T22:46:22.535Z,19.10
2023-01-23T22:48:49.535Z,19.10
2023-01-23T22:51:24.489Z,19.10
2023-01-23T22:53:55.814Z,19.10
2023-01-23T22:56:23.726Z,19.10
2023-01-23T22:58:52.515Z,19.10
2023-01-23T23:01:20.529Z,19.10
2023-01-23T23:03:47.336Z,19.00
2023-01-23T23:06:16.026Z,19.00
2023-01-23T23:08:46.340Z,19.00
2023-01-23T23:11:16.784Z,19.00
2023-01-23T23:13:43.884Z,19.00
2023-01-23T23:16:17.827Z,19.00
2023-01-23T23:18:47.055Z,19.00
2023-01-23T23:21:15.780Z,18.90
2023-01-23T23:23:42.916Z,18.90
2023-01-23T23:26:11.193Z,18.90
2023-01-23T23:28:39.062Z,18.90
2023-01-23T23:31:07.736Z,18.90
2023-01-23T23:33:35.122Z,18.90
2023-01-23T23:36:01.889Z,18.80
2023-01-23T23:38:28.995Z,18.80
2023-01-23T23:40:58.404Z,18.80
2023-01-23T23:43:25.944Z,18.80
2023-01-23T23:46:00.864Z,18.80
2023-01-23T23:48:29.252Z,18.80
2023-01-23T23:50:59.032Z,18.80
2023-01-23T23:53:25.901Z,18.80
2023-01-23T23:55:52.774Z,18.80
2023-01-23T23:58:19.522Z,18.80
